Time;durP1;ratioP1;P1;durP2;ratioP2;P2;SDS_P1;SDS_P2;PMS_P1;PMS_P2;Temp;Humidity;BMP_temperature;BMP_pressure;BME280_temperature;BME280_humidity;BME280_pressure;Samples;Min_cycle;Max_cycle;Signal;HPM_P1;HPM_P2
2020/12/02 00:01:00;;;;;;;41.55;20;;;;;;;1.22;91.3418;95155.9;;;;
2020/12/02 00:02:01;;;;;;;41.55;20;;;;;;;1.22;91.3418;95155.9;;;;
2020/12/02 00:03:02;;;;;;;41.55;20;;;;;;;1.22;91.3418;95155.9;;;;
2020/12/02 00:04:09;;;;;;;41.55;20;;;;;;;1.22;91.3418;95155.9;;;;
2020/12/02 00:05:12;;;;;;;41.55;20;;;;;;;1.22;91.3418;95155.9;;;;
2020/12/02 00:06:13;;;;;;;41.55;20;;;;;;;1.22;91.3418;95155.9;;;;
2020/12/02 00:07:13;;;;;;;41.55;20;;;;;;;1.22;91.3418;95155.9;;;;
2020/12/02 00:08:16;;;;;;;41.55;20;;;;;;;1.22;91.3418;95155.9;;;;
2020/12/02 00:09:21;;;;;;;41.55;20;;;;;;;1.22;91.3418;95155.9;;;;
2020/12/02 00:10:23;;;;;;;41.55;20;;;;;;;1.22;91.3418;95155.9;;;;
2020/12/02 00:11:25;;;;;;;35.2;18.45;;;;;;;1.25;91.37695;95160.01;;;;
2020/12/02 00:12:28;;;;;;;35.2;18.45;;;;;;;1.25;91.37695;95160.01;;;;
2020/12/02 00:13:29;;;;;;;35.2;18.45;;;;;;;1.25;91.37695;95160.01;;;;
2020/12/02 00:14:33;;;;;;;35.2;18.45;;;;;;;1.25;91.37695;95160.01;;;;
2020/12/02 00:15:34;;;;;;;35.2;18.45;;;;;;;1.25;91.37695;95160.01;;;;
2020/12/02 00:16:34;;;;;;;35.2;18.45;;;;;;;1.25;91.37695;95160.01;;;;
2020/12/02 00:17:35;;;;;;;35.2;18.45;;;;;;;1.25;91.37695;95160.01;;;;
2020/12/02 00:18:35;;;;;;;35.2;18.45;;;;;;;1.25;91.37695;95160.01;;;;
2020/12/02 00:19:36;;;;;;;35.2;18.45;;;;;;;1.25;91.37695;95160.01;;;;
2020/12/02 00:20:37;;;;;;;35.2;18.45;;;;;;;1.25;91.37695;95160.01;;;;
2020/12/02 00:21:37;;;;;;;36.85;19.45;;;;;;;1.26;91.41016;95161.68;;;;
2020/12/02 00:22:38;;;;;;;36.85;19.45;;;;;;;1.26;91.41016;95161.68;;;;
2020/12/02 00:23:39;;;;;;;36.85;19.45;;;;;;;1.26;91.41016;95161.68;;;;
2020/12/02 00:24:39;;;;;;;36.85;19.45;;;;;;;1.26;91.41016;95161.68;;;;
2020/12/02 00:25:40;;;;;;;36.85;19.45;;;;;;;1.26;91.41016;95161.68;;;;
2020/12/02 00:26:41;;;;;;;36.85;19.45;;;;;;;1.26;91.41016;95161.68;;;;
2020/12/02 00:27:41;;;;;;;36.85;19.45;;;;;;;1.26;91.41016;95161.68;;;;
2020/12/02 00:28:43;;;;;;;36.85;19.45;;;;;;;1.26;91.41016;95161.68;;;;
2020/12/02 00:29:43;;;;;;;36.85;19.45;;;;;;;1.26;91.41016;95161.68;;;;
2020/12/02 00:30:45;;;;;;;36.85;19.45;;;;;;;1.26;91.41016;95161.68;;;;
2020/12/02 00:31:46;;;;;;;35.75001;18.5;;;;;;;1.25;91.50195;95155.94;;;;
2020/12/02 00:32:46;;;;;;;35.75001;18.5;;;;;;;1.25;91.50195;95155.94;;;;
2020/12/02 00:33:47;;;;;;;35.75001;18.5;;;;;;;1.25;91.50195;95155.94;;;;
2020/12/02 00:34:48;;;;;;;35.75001;18.5;;;;;;;1.25;91.50195;95155.94;;;;
2020/12/02 00:35:48;;;;;;;35.75001;18.5;;;;;;;1.25;91.50195;95155.94;;;;
2020/12/02 00:36:49;;;;;;;35.75001;18.5;;;;;;;1.25;91.50195;95155.94;;;;
2020/12/02 00:37:50;;;;;;;35.75001;18.5;;;;;;;1.25;91.50195;95155.94;;;;
2020/12/02 00:38:50;;;;;;;35.75001;18.5;;;;;;;1.25;91.50195;95155.94;;;;
2020/12/02 00:39:51;;;;;;;35.75001;18.5;;;;;;;1.25;91.50195;95155.94;;;;
2020/12/02 00:40:52;;;;;;;35.75001;18.5;;;;;;;1.25;91.50195;95155.94;;;;
2020/12/02 00:41:53;;;;;;;35.75001;18.5;;;;;;;1.25;91.50195;95155.94;;;;
2020/12/02 00:42:54;;;;;;;36;18.9;;;;;;;1.25;91.5127;95149.3;;;;
2020/12/02 00:43:54;;;;;;;36;18.9;;;;;;;1.25;91.5127;95149.3;;;;
2020/12/02 00:44:55;;;;;;;36;18.9;;;;;;;1.25;91.5127;95149.3;;;;
2020/12/02 00:45:55;;;;;;;36;18.9;;;;;;;1.25;91.5127;95149.3;;;;
2020/12/02 00:46:58;;;;;;;36;18.9;;;;;;;1.25;91.5127;95149.3;;;;
2020/12/02 00:48:01;;;;;;;36;18.9;;;;;;;1.25;91.5127;95149.3;;;;
2020/12/02 00:49:01;;;;;;;36;18.9;;;;;;;1.25;91.5127;95149.3;;;;
2020/12/02 00:50:03;;;;;;;36;18.9;;;;;;;1.25;91.5127;95149.3;;;;
2020/12/02 00:51:07;;;;;;;36;18.9;;;;;;;1.25;91.5127;95149.3;;;;
2020/12/02 00:52:09;;;;;;;36;18.9;;;;;;;1.25;91.5127;95149.3;;;;
2020/12/02 00:53:10;;;;;;;34.15;16.9;;;;;;;1.23;91.82129;95148.24;;;;
2020/12/02 00:54:15;;;;;;;34.15;16.9;;;;;;;1.23;91.82129;95148.24;;;;
2020/12/02 00:55:16;;;;;;;34.15;16.9;;;;;;;1.23;91.82129;95148.24;;;;
2020/12/02 00:56:16;;;;;;;34.15;16.9;;;;;;;1.23;91.82129;95148.24;;;;
2020/12/02 00:57:19;;;;;;;34.15;16.9;;;;;;;1.23;91.82129;95148.24;;;;
2020/12/02 00:58:22;;;;;;;34.15;16.9;;;;;;;1.23;91.82129;95148.24;;;;
2020/12/02 00:59:31;;;;;;;34.15;16.9;;;;;;;1.23;91.82129;95148.24;;;;
2020/12/02 01:00:32;;;;;;;34.15;16.9;;;;;;;1.23;91.82129;95148.24;;;;
2020/12/02 01:01:38;;;;;;;34.15;16.9;;;;;;;1.23;91.82129;95148.24;;;;
2020/12/02 01:02:47;;;;;;;34.15;16.9;;;;;;;1.23;91.82129;95148.24;;;;
2020/12/02 01:03:57;;;;;;;41.15001;17.75;;;;;;;1.18;91.93555;95145.72;;;;
2020/12/02 01:04:58;;;;;;;41.15001;17.75;;;;;;;1.18;91.93555;95145.72;;;;
2020/12/02 01:05:59;;;;;;;41.15001;17.75;;;;;;;1.18;91.93555;95145.72;;;;
2020/12/02 01:06:59;;;;;;;41.15001;17.75;;;;;;;1.18;91.93555;95145.72;;;;
2020/12/02 01:08:00;;;;;;;41.15001;17.75;;;;;;;1.18;91.93555;95145.72;;;;
2020/12/02 01:09:18;;;;;;;41.15001;17.75;;;;;;;1.18;91.93555;95145.72;;;;
2020/12/02 01:10:20;;;;;;;41.15001;17.75;;;;;;;1.18;91.93555;95145.72;;;;
2020/12/02 01:11:21;;;;;;;41.15001;17.75;;;;;;;1.18;91.93555;95145.72;;;;
2020/12/02 01:12:24;;;;;;;41.15001;17.75;;;;;;;1.18;91.93555;95145.72;;;;
2020/12/02 01:13:25;;;;;;;41.15001;17.75;;;;;;;1.18;91.93555;95145.72;;;;
2020/12/02 01:14:26;;;;;;;41.15001;17.75;;;;;;;1.18;91.93555;95145.72;;;;
2020/12/02 01:15:27;;;;;;;47.5;19.1;;;;;;;1.14;92.06055;95147.58;;;;
2020/12/02 01:16:28;;;;;;;47.5;19.1;;;;;;;1.14;92.06055;95147.58;;;;
2020/12/02 01:17:31;;;;;;;47.5;19.1;;;;;;;1.14;92.06055;95147.58;;;;
2020/12/02 01:18:32;;;;;;;47.5;19.1;;;;;;;1.14;92.06055;95147.58;;;;
2020/12/02 01:19:33;;;;;;;47.5;19.1;;;;;;;1.14;92.06055;95147.58;;;;
2020/12/02 01:20:35;;;;;;;47.5;19.1;;;;;;;1.14;92.06055;95147.58;;;;
2020/12/02 01:21:36;;;;;;;47.5;19.1;;;;;;;1.14;92.06055;95147.58;;;;
2020/12/02 01:22:39;;;;;;;47.5;19.1;;;;;;;1.14;92.06055;95147.58;;;;
2020/12/02 01:23:42;;;;;;;47.5;19.1;;;;;;;1.14;92.06055;95147.58;;;;
2020/12/02 01:24:47;;;;;;;47.5;19.1;;;;;;;1.14;92.06055;95147.58;;;;
2020/12/02 01:25:55;;;;;;;51.45;20.95;;;;;;;1.01;92.21191;95134.49;;;;
2020/12/02 01:26:56;;;;;;;51.45;20.95;;;;;;;1.01;92.21191;95134.49;;;;
2020/12/02 01:28:05;;;;;;;51.45;20.95;;;;;;;1.01;92.21191;95134.49;;;;
2020/12/02 01:29:07;;;;;;;51.45;20.95;;;;;;;1.01;92.21191;95134.49;;;;
2020/12/02 01:30:14;;;;;;;51.45;20.95;;;;;;;1.01;92.21191;95134.49;;;;
2020/12/02 01:31:17;;;;;;;51.45;20.95;;;;;;;1.01;92.21191;95134.49;;;;
2020/12/02 01:32:18;;;;;;;51.45;20.95;;;;;;;1.01;92.21191;95134.49;;;;
2020/12/02 01:33:19;;;;;;;51.45;20.95;;;;;;;1.01;92.21191;95134.49;;;;
2020/12/02 01:34:19;;;;;;;51.45;20.95;;;;;;;1.01;92.21191;95134.49;;;;
2020/12/02 01:35:22;;;;;;;51.45;20.95;;;;;;;1.01;92.21191;95134.49;;;;
2020/12/02 01:36:26;;;;;;;56.05;24.5;;;;;;;0.92;92.56836;95143.97;;;;
2020/12/02 01:37:46;;;;;;;56.05;24.5;;;;;;;0.92;92.56836;95143.97;;;;
2020/12/02 01:38:51;;;;;;;56.05;24.5;;;;;;;0.92;92.56836;95143.97;;;;
2020/12/02 01:39:54;;;;;;;56.05;24.5;;;;;;;0.92;92.56836;95143.97;;;;
2020/12/02 01:41:02;;;;;;;56.05;24.5;;;;;;;0.92;92.56836;95143.97;;;;
2020/12/02 01:42:03;;;;;;;56.05;24.5;;;;;;;0.92;92.56836;95143.97;;;;
2020/12/02 01:43:05;;;;;;;56.05;24.5;;;;;;;0.92;92.56836;95143.97;;;;
2020/12/02 01:44:08;;;;;;;56.05;24.5;;;;;;;0.92;92.56836;95143.97;;;;
2020/12/02 01:45:10;;;;;;;56.05;24.5;;;;;;;0.92;92.56836;95143.97;;;;
2020/12/02 01:46:18;;;;;;;56.05;24.5;;;;;;;0.92;92.56836;95143.97;;;;
2020/12/02 01:47:27;;;;;;;62.75001;28.3;;;;;;;0.78;92.80762;95126.17;;;;
2020/12/02 01:48:41;;;;;;;62.75001;28.3;;;;;;;0.78;92.80762;95126.17;;;;
2020/12/02 01:49:57;;;;;;;62.75001;28.3;;;;;;;0.78;92.80762;95126.17;;;;
2020/12/02 01:51:06;;;;;;;62.75001;28.3;;;;;;;0.78;92.80762;95126.17;;;;
2020/12/02 01:52:15;;;;;;;62.75001;28.3;;;;;;;0.78;92.80762;95126.17;;;;
2020/12/02 01:53:42;;;;;;;62.75001;28.3;;;;;;;0.78;92.80762;95126.17;;;;
2020/12/02 01:54:49;;;;;;;62.75001;28.3;;;;;;;0.78;92.80762;95126.17;;;;
2020/12/02 01:55:55;;;;;;;62.75001;28.3;;;;;;;0.78;92.80762;95126.17;;;;
2020/12/02 01:57:00;;;;;;;62.75001;28.3;;;;;;;0.78;92.80762;95126.17;;;;
2020/12/02 01:58:04;;;;;;;56.15;25.2;;;;;;;0.75;92.99707;95127.87;;;;
2020/12/02 01:59:14;;;;;;;56.15;25.2;;;;;;;0.75;92.99707;95127.87;;;;
2020/12/02 02:00:24;;;;;;;56.15;25.2;;;;;;;0.75;92.99707;95127.87;;;;
2020/12/02 02:01:29;;;;;;;56.15;25.2;;;;;;;0.75;92.99707;95127.87;;;;
2020/12/02 02:02:43;;;;;;;56.15;25.2;;;;;;;0.75;92.99707;95127.87;;;;
2020/12/02 02:03:57;;;;;;;56.15;25.2;;;;;;;0.75;92.99707;95127.87;;;;
2020/12/02 02:04:58;;;;;;;56.15;25.2;;;;;;;0.75;92.99707;95127.87;;;;
2020/12/02 02:06:07;;;;;;;56.15;25.2;;;;;;;0.75;92.99707;95127.87;;;;
2020/12/02 02:07:16;;;;;;;56.15;25.2;;;;;;;0.75;92.99707;95127.87;;;;
2020/12/02 02:08:20;;;;;;;54.89999;24.85;;;;;;;0.74;92.93457;95124.88;;;;
2020/12/02 02:09:22;;;;;;;54.89999;24.85;;;;;;;0.74;92.93457;95124.88;;;;
2020/12/02 02:10:23;;;;;;;54.89999;24.85;;;;;;;0.74;92.93457;95124.88;;;;
2020/12/02 02:11:30;;;;;;;54.89999;24.85;;;;;;;0.74;92.93457;95124.88;;;;
2020/12/02 02:12:30;;;;;;;54.89999;24.85;;;;;;;0.74;92.93457;95124.88;;;;
2020/12/02 02:13:59;;;;;;;54.89999;24.85;;;;;;;0.74;92.93457;95124.88;;;;
2020/12/02 02:15:21;;;;;;;54.89999;24.85;;;;;;;0.74;92.93457;95124.88;;;;
2020/12/02 02:16:33;;;;;;;54.89999;24.85;;;;;;;0.74;92.93457;95124.88;;;;
2020/12/02 02:17:39;;;;;;;54.89999;24.85;;;;;;;0.74;92.93457;95124.88;;;;
2020/12/02 02:18:40;;;;;;;54.89999;24.85;;;;;;;0.74;92.93457;95124.88;;;;
2020/12/02 02:19:40;;;;;;;54.89999;24.85;;;;;;;0.74;92.93457;95124.88;;;;
2020/12/02 02:20:41;;;;;;;54.89999;24.85;;;;;;;0.74;92.93457;95124.88;;;;
2020/12/02 02:21:46;;;;;;;54.89999;24.85;;;;;;;0.74;92.93457;95124.88;;;;
2020/12/02 02:22:50;;;;;;;54.89999;24.85;;;;;;;0.74;92.93457;95124.88;;;;
2020/12/02 02:23:51;;;;;;;54.89999;24.85;;;;;;;0.74;92.93457;95124.88;;;;
2020/12/02 02:24:51;;;;;;;54.89999;24.85;;;;;;;0.74;92.93457;95124.88;;;;
2020/12/02 02:25:55;;;;;;;54.89999;24.85;;;;;;;0.74;92.93457;95124.88;;;;
2020/12/02 02:27:06;;;;;;;54.89999;24.85;;;;;;;0.74;92.93457;95124.88;;;;
2020/12/02 02:28:07;;;;;;;54.89999;24.85;;;;;;;0.74;92.93457;95124.88;;;;
2020/12/02 02:29:09;;;;;;;54.89999;24.85;;;;;;;0.74;92.93457;95124.88;;;;
2020/12/02 02:30:15;;;;;;;52.79999;25.35;;;;;;;0.61;92.85254;95123.85;;;;
2020/12/02 02:31:17;;;;;;;52.79999;25.35;;;;;;;0.61;92.85254;95123.85;;;;
2020/12/02 02:32:20;;;;;;;52.79999;25.35;;;;;;;0.61;92.85254;95123.85;;;;
2020/12/02 02:33:24;;;;;;;52.79999;25.35;;;;;;;0.61;92.85254;95123.85;;;;
2020/12/02 02:34:26;;;;;;;52.79999;25.35;;;;;;;0.61;92.85254;95123.85;;;;
2020/12/02 02:35:30;;;;;;;52.79999;25.35;;;;;;;0.61;92.85254;95123.85;;;;
2020/12/02 02:36:31;;;;;;;52.79999;25.35;;;;;;;0.61;92.85254;95123.85;;;;
2020/12/02 02:37:31;;;;;;;52.79999;25.35;;;;;;;0.61;92.85254;95123.85;;;;
2020/12/02 02:38:32;;;;;;;52.79999;25.35;;;;;;;0.61;92.85254;95123.85;;;;
2020/12/02 02:39:33;;;;;;;52.79999;25.35;;;;;;;0.61;92.85254;95123.85;;;;
2020/12/02 02:40:33;;;;;;;55.10001;25.9;;;;;;;0.53;92.92969;95122.5;;;;
2020/12/02 02:41:34;;;;;;;55.10001;25.9;;;;;;;0.53;92.92969;95122.5;;;;
2020/12/02 02:42:35;;;;;;;55.10001;25.9;;;;;;;0.53;92.92969;95122.5;;;;
2020/12/02 02:43:38;;;;;;;55.10001;25.9;;;;;;;0.53;92.92969;95122.5;;;;
2020/12/02 02:44:39;;;;;;;55.10001;25.9;;;;;;;0.53;92.92969;95122.5;;;;
2020/12/02 02:45:40;;;;;;;55.10001;25.9;;;;;;;0.53;92.92969;95122.5;;;;
2020/12/02 02:46:40;;;;;;;55.10001;25.9;;;;;;;0.53;92.92969;95122.5;;;;
2020/12/02 02:47:41;;;;;;;55.10001;25.9;;;;;;;0.53;92.92969;95122.5;;;;
2020/12/02 02:48:42;;;;;;;55.10001;25.9;;;;;;;0.53;92.92969;95122.5;;;;
2020/12/02 02:49:42;;;;;;;55.10001;25.9;;;;;;;0.53;92.92969;95122.5;;;;
2020/12/02 02:50:43;;;;;;;55.10001;25.9;;;;;;;0.53;92.92969;95122.5;;;;
2020/12/02 02:51:43;;;;;;;54.35;26.35;;;;;;;0.45;92.99609;95117.66;;;;
2020/12/02 02:52:44;;;;;;;54.35;26.35;;;;;;;0.45;92.99609;95117.66;;;;
2020/12/02 02:53:45;;;;;;;54.35;26.35;;;;;;;0.45;92.99609;95117.66;;;;
2020/12/02 02:54:46;;;;;;;54.35;26.35;;;;;;;0.45;92.99609;95117.66;;;;
2020/12/02 02:55:46;;;;;;;54.35;26.35;;;;;;;0.45;92.99609;95117.66;;;;
2020/12/02 02:56:48;;;;;;;54.35;26.35;;;;;;;0.45;92.99609;95117.66;;;;
2020/12/02 02:57:49;;;;;;;54.35;26.35;;;;;;;0.45;92.99609;95117.66;;;;
2020/12/02 02:58:50;;;;;;;54.35;26.35;;;;;;;0.45;92.99609;95117.66;;;;
2020/12/02 02:59:51;;;;;;;54.35;26.35;;;;;;;0.45;92.99609;95117.66;;;;
2020/12/02 03:00:51;;;;;;;54.35;26.35;;;;;;;0.45;92.99609;95117.66;;;;
2020/12/02 03:01:53;;;;;;;54.35;26.35;;;;;;;0.45;92.99609;95117.66;;;;
2020/12/02 03:02:53;;;;;;;54.35;26.35;;;;;;;0.45;92.99609;95117.66;;;;
2020/12/02 03:03:56;;;;;;;54.35;26.35;;;;;;;0.45;92.99609;95117.66;;;;
2020/12/02 03:04:56;;;;;;;54.35;26.35;;;;;;;0.45;92.99609;95117.66;;;;
2020/12/02 03:05:57;;;;;;;54.35;26.35;;;;;;;0.45;92.99609;95117.66;;;;
2020/12/02 03:07:00;;;;;;;54.35;26.35;;;;;;;0.45;92.99609;95117.66;;;;
2020/12/02 03:08:00;;;;;;;54.35;26.35;;;;;;;0.45;92.99609;95117.66;;;;
2020/12/02 03:09:05;;;;;;;54.35;26.35;;;;;;;0.45;92.99609;95117.66;;;;
2020/12/02 03:10:06;;;;;;;54.35;26.35;;;;;;;0.45;92.99609;95117.66;;;;
2020/12/02 03:11:07;;;;;;;54.35;26.35;;;;;;;0.45;92.99609;95117.66;;;;
2020/12/02 03:12:13;;;;;;;54.35;26.35;;;;;;;0.45;92.99609;95117.66;;;;
2020/12/02 03:13:14;;;;;;;47.05;22.9;;;;;;;0.4;92.82813;95105.49;;;;
2020/12/02 03:14:34;;;;;;;47.05;22.9;;;;;;;0.4;92.82813;95105.49;;;;
2020/12/02 03:15:37;;;;;;;47.05;22.9;;;;;;;0.4;92.82813;95105.49;;;;
2020/12/02 03:16:37;;;;;;;47.05;22.9;;;;;;;0.4;92.82813;95105.49;;;;
2020/12/02 03:17:43;;;;;;;47.05;22.9;;;;;;;0.4;92.82813;95105.49;;;;
2020/12/02 03:18:43;;;;;;;47.05;22.9;;;;;;;0.4;92.82813;95105.49;;;;
2020/12/02 03:19:46;;;;;;;47.05;22.9;;;;;;;0.4;92.82813;95105.49;;;;
2020/12/02 03:20:52;;;;;;;47.05;22.9;;;;;;;0.4;92.82813;95105.49;;;;
2020/12/02 03:21:58;;;;;;;47.05;22.9;;;;;;;0.4;92.82813;95105.49;;;;
2020/12/02 03:23:09;;;;;;;53.39999;24.5;;;;;;;0.26;92.89258;95094.25;;;;
2020/12/02 03:24:12;;;;;;;53.39999;24.5;;;;;;;0.26;92.89258;95094.25;;;;
2020/12/02 03:25:13;;;;;;;53.39999;24.5;;;;;;;0.26;92.89258;95094.25;;;;
2020/12/02 03:26:20;;;;;;;53.39999;24.5;;;;;;;0.26;92.89258;95094.25;;;;
2020/12/02 03:27:21;;;;;;;53.39999;24.5;;;;;;;0.26;92.89258;95094.25;;;;
2020/12/02 03:28:28;;;;;;;53.39999;24.5;;;;;;;0.26;92.89258;95094.25;;;;
2020/12/02 03:29:28;;;;;;;53.39999;24.5;;;;;;;0.26;92.89258;95094.25;;;;
2020/12/02 03:30:29;;;;;;;53.39999;24.5;;;;;;;0.26;92.89258;95094.25;;;;
2020/12/02 03:31:30;;;;;;;53.39999;24.5;;;;;;;0.26;92.89258;95094.25;;;;
2020/12/02 03:32:31;;;;;;;53.39999;24.5;;;;;;;0.26;92.89258;95094.25;;;;
2020/12/02 03:33:31;;;;;;;53.39999;24.5;;;;;;;0.26;92.89258;95094.25;;;;
2020/12/02 03:34:32;;;;;;;56.1;25.65;;;;;;;0.16;93.08594;95099.49;;;;
2020/12/02 03:35:32;;;;;;;56.1;25.65;;;;;;;0.16;93.08594;95099.49;;;;
2020/12/02 03:36:33;;;;;;;56.1;25.65;;;;;;;0.16;93.08594;95099.49;;;;
2020/12/02 03:37:33;;;;;;;56.1;25.65;;;;;;;0.16;93.08594;95099.49;;;;
2020/12/02 03:38:34;;;;;;;56.1;25.65;;;;;;;0.16;93.08594;95099.49;;;;
2020/12/02 03:39:34;;;;;;;56.1;25.65;;;;;;;0.16;93.08594;95099.49;;;;
2020/12/02 03:40:35;;;;;;;56.1;25.65;;;;;;;0.16;93.08594;95099.49;;;;
2020/12/02 03:41:39;;;;;;;56.1;25.65;;;;;;;0.16;93.08594;95099.49;;;;
2020/12/02 03:42:40;;;;;;;56.1;25.65;;;;;;;0.16;93.08594;95099.49;;;;
2020/12/02 03:43:41;;;;;;;56.1;25.65;;;;;;;0.16;93.08594;95099.49;;;;
2020/12/02 03:44:41;;;;;;;46.74999;22.5;;;;;;;0.06;93.12988;95110.33;;;;
2020/12/02 03:45:42;;;;;;;46.74999;22.5;;;;;;;0.06;93.12988;95110.33;;;;
2020/12/02 03:46:45;;;;;;;46.74999;22.5;;;;;;;0.06;93.12988;95110.33;;;;
2020/12/02 03:47:45;;;;;;;46.74999;22.5;;;;;;;0.06;93.12988;95110.33;;;;
2020/12/02 03:48:46;;;;;;;46.74999;22.5;;;;;;;0.06;93.12988;95110.33;;;;
2020/12/02 03:49:46;;;;;;;46.74999;22.5;;;;;;;0.06;93.12988;95110.33;;;;
2020/12/02 03:50:47;;;;;;;46.74999;22.5;;;;;;;0.06;93.12988;95110.33;;;;
2020/12/02 03:51:48;;;;;;;46.74999;22.5;;;;;;;0.06;93.12988;95110.33;;;;
2020/12/02 03:52:49;;;;;;;46.74999;22.5;;;;;;;0.06;93.12988;95110.33;;;;
2020/12/02 03:53:49;;;;;;;46.74999;22.5;;;;;;;0.06;93.12988;95110.33;;;;
2020/12/02 03:54:50;;;;;;;46.74999;22.5;;;;;;;0.06;93.12988;95110.33;;;;
2020/12/02 03:55:50;;;;;;;44.89999;20.75;;;;;;;-0.04;93.14746;95103.59;;;;
2020/12/02 03:56:51;;;;;;;44.89999;20.75;;;;;;;-0.04;93.14746;95103.59;;;;
2020/12/02 03:57:51;;;;;;;44.89999;20.75;;;;;;;-0.04;93.14746;95103.59;;;;
2020/12/02 03:58:52;;;;;;;44.89999;20.75;;;;;;;-0.04;93.14746;95103.59;;;;
2020/12/02 03:59:52;;;;;;;44.89999;20.75;;;;;;;-0.04;93.14746;95103.59;;;;
2020/12/02 04:00:53;;;;;;;44.89999;20.75;;;;;;;-0.04;93.14746;95103.59;;;;
2020/12/02 04:01:53;;;;;;;44.89999;20.75;;;;;;;-0.04;93.14746;95103.59;;;;
2020/12/02 04:02:54;;;;;;;44.89999;20.75;;;;;;;-0.04;93.14746;95103.59;;;;
2020/12/02 04:03:54;;;;;;;44.89999;20.75;;;;;;;-0.04;93.14746;95103.59;;;;
2020/12/02 04:04:55;;;;;;;44.89999;20.75;;;;;;;-0.04;93.14746;95103.59;;;;
2020/12/02 04:05:55;;;;;;;43.7;21.7;;;;;;;-0.2;93.15527;95102.26;;;;
2020/12/02 04:06:56;;;;;;;43.7;21.7;;;;;;;-0.2;93.15527;95102.26;;;;
2020/12/02 04:07:56;;;;;;;43.7;21.7;;;;;;;-0.2;93.15527;95102.26;;;;
2020/12/02 04:08:57;;;;;;;43.7;21.7;;;;;;;-0.2;93.15527;95102.26;;;;
2020/12/02 04:09:58;;;;;;;43.7;21.7;;;;;;;-0.2;93.15527;95102.26;;;;
2020/12/02 04:10:59;;;;;;;43.7;21.7;;;;;;;-0.2;93.15527;95102.26;;;;
2020/12/02 04:12:00;;;;;;;43.7;21.7;;;;;;;-0.2;93.15527;95102.26;;;;
2020/12/02 04:13:00;;;;;;;43.7;21.7;;;;;;;-0.2;93.15527;95102.26;;;;
2020/12/02 04:14:01;;;;;;;43.7;21.7;;;;;;;-0.2;93.15527;95102.26;;;;
2020/12/02 04:15:01;;;;;;;43.7;21.7;;;;;;;-0.2;93.15527;95102.26;;;;
2020/12/02 04:16:03;;;;;;;43.7;21.7;;;;;;;-0.2;93.15527;95102.26;;;;
2020/12/02 04:17:04;;;;;;;45.25;21.2;;;;;;;-0.29;93.29297;95096.69;;;;
2020/12/02 04:18:04;;;;;;;45.25;21.2;;;;;;;-0.29;93.29297;95096.69;;;;
2020/12/02 04:19:05;;;;;;;45.25;21.2;;;;;;;-0.29;93.29297;95096.69;;;;
2020/12/02 04:20:05;;;;;;;45.25;21.2;;;;;;;-0.29;93.29297;95096.69;;;;
2020/12/02 04:21:07;;;;;;;45.25;21.2;;;;;;;-0.29;93.29297;95096.69;;;;
2020/12/02 04:22:07;;;;;;;45.25;21.2;;;;;;;-0.29;93.29297;95096.69;;;;
2020/12/02 04:23:08;;;;;;;45.25;21.2;;;;;;;-0.29;93.29297;95096.69;;;;
2020/12/02 04:24:08;;;;;;;45.25;21.2;;;;;;;-0.29;93.29297;95096.69;;;;
2020/12/02 04:25:09;;;;;;;45.25;21.2;;;;;;;-0.29;93.29297;95096.69;;;;
2020/12/02 04:26:10;;;;;;;45.25;21.2;;;;;;;-0.29;93.29297;95096.69;;;;
2020/12/02 04:27:10;;;;;;;49.1;22.7;;;;;;;-0.32;93.32617;95082.56;;;;
2020/12/02 04:28:11;;;;;;;49.1;22.7;;;;;;;-0.32;93.32617;95082.56;;;;
2020/12/02 04:29:12;;;;;;;49.1;22.7;;;;;;;-0.32;93.32617;95082.56;;;;
2020/12/02 04:30:12;;;;;;;49.1;22.7;;;;;;;-0.32;93.32617;95082.56;;;;
2020/12/02 04:31:13;;;;;;;49.1;22.7;;;;;;;-0.32;93.32617;95082.56;;;;
2020/12/02 04:32:14;;;;;;;49.1;22.7;;;;;;;-0.32;93.32617;95082.56;;;;
2020/12/02 04:33:14;;;;;;;49.1;22.7;;;;;;;-0.32;93.32617;95082.56;;;;
2020/12/02 04:34:16;;;;;;;49.1;22.7;;;;;;;-0.32;93.32617;95082.56;;;;
2020/12/02 04:35:16;;;;;;;49.1;22.7;;;;;;;-0.32;93.32617;95082.56;;;;
2020/12/02 04:36:18;;;;;;;49.1;22.7;;;;;;;-0.32;93.32617;95082.56;;;;
2020/12/02 04:37:19;;;;;;;49.1;22.7;;;;;;;-0.32;93.32617;95082.56;;;;
2020/12/02 04:38:19;;;;;;;52.25001;23.65;;;;;;;-0.38;93.14746;95088.45;;;;
2020/12/02 04:39:20;;;;;;;52.25001;23.65;;;;;;;-0.38;93.14746;95088.45;;;;
2020/12/02 04:40:20;;;;;;;52.25001;23.65;;;;;;;-0.38;93.14746;95088.45;;;;
2020/12/02 04:41:24;;;;;;;52.25001;23.65;;;;;;;-0.38;93.14746;95088.45;;;;
2020/12/02 04:42:29;;;;;;;52.25001;23.65;;;;;;;-0.38;93.14746;95088.45;;;;
2020/12/02 04:43:32;;;;;;;52.25001;23.65;;;;;;;-0.38;93.14746;95088.45;;;;
2020/12/02 04:44:37;;;;;;;52.25001;23.65;;;;;;;-0.38;93.14746;95088.45;;;;
2020/12/02 04:45:37;;;;;;;52.25001;23.65;;;;;;;-0.38;93.14746;95088.45;;;;
2020/12/02 04:46:38;;;;;;;52.25001;23.65;;;;;;;-0.38;93.14746;95088.45;;;;
2020/12/02 04:47:40;;;;;;;52.25001;23.65;;;;;;;-0.38;93.14746;95088.45;;;;
2020/12/02 04:48:41;;;;;;;36.8;18.5;;;;;;;-0.42;93.04688;95084.09;;;;
2020/12/02 04:49:45;;;;;;;36.8;18.5;;;;;;;-0.42;93.04688;95084.09;;;;
2020/12/02 04:50:47;;;;;;;36.8;18.5;;;;;;;-0.42;93.04688;95084.09;;;;
2020/12/02 04:51:50;;;;;;;36.8;18.5;;;;;;;-0.42;93.04688;95084.09;;;;
2020/12/02 04:52:56;;;;;;;36.8;18.5;;;;;;;-0.42;93.04688;95084.09;;;;
2020/12/02 04:54:00;;;;;;;36.8;18.5;;;;;;;-0.42;93.04688;95084.09;;;;
2020/12/02 04:55:01;;;;;;;36.8;18.5;;;;;;;-0.42;93.04688;95084.09;;;;
2020/12/02 04:56:01;;;;;;;36.8;18.5;;;;;;;-0.42;93.04688;95084.09;;;;
2020/12/02 04:57:02;;;;;;;36.8;18.5;;;;;;;-0.42;93.04688;95084.09;;;;
2020/12/02 04:58:02;;;;;;;36.8;18.5;;;;;;;-0.42;93.04688;95084.09;;;;
2020/12/02 04:59:14;;;;;;;40.05;19.05;;;;;;;-0.49;92.77051;95072.54;;;;
2020/12/02 05:00:15;;;;;;;40.05;19.05;;;;;;;-0.49;92.77051;95072.54;;;;
2020/12/02 05:01:28;;;;;;;40.05;19.05;;;;;;;-0.49;92.77051;95072.54;;;;
2020/12/02 05:02:31;;;;;;;40.05;19.05;;;;;;;-0.49;92.77051;95072.54;;;;
2020/12/02 05:03:31;;;;;;;40.05;19.05;;;;;;;-0.49;92.77051;95072.54;;;;
2020/12/02 05:04:32;;;;;;;40.05;19.05;;;;;;;-0.49;92.77051;95072.54;;;;
2020/12/02 05:05:33;;;;;;;40.05;19.05;;;;;;;-0.49;92.77051;95072.54;;;;
2020/12/02 05:06:33;;;;;;;40.05;19.05;;;;;;;-0.49;92.77051;95072.54;;;;
2020/12/02 05:07:36;;;;;;;40.05;19.05;;;;;;;-0.49;92.77051;95072.54;;;;
2020/12/02 05:08:37;;;;;;;40.05;19.05;;;;;;;-0.49;92.77051;95072.54;;;;
2020/12/02 05:09:37;;;;;;;40.05;19.05;;;;;;;-0.49;92.77051;95072.54;;;;
2020/12/02 05:10:53;;;;;;;41.25;19.15;;;;;;;-0.61;92.59863;95072.19;;;;
2020/12/02 05:11:54;;;;;;;41.25;19.15;;;;;;;-0.61;92.59863;95072.19;;;;
2020/12/02 05:12:59;;;;;;;41.25;19.15;;;;;;;-0.61;92.59863;95072.19;;;;
2020/12/02 05:14:09;;;;;;;41.25;19.15;;;;;;;-0.61;92.59863;95072.19;;;;
2020/12/02 05:15:13;;;;;;;41.25;19.15;;;;;;;-0.61;92.59863;95072.19;;;;
2020/12/02 05:16:20;;;;;;;41.25;19.15;;;;;;;-0.61;92.59863;95072.19;;;;
2020/12/02 05:17:21;;;;;;;41.25;19.15;;;;;;;-0.61;92.59863;95072.19;;;;
2020/12/02 05:18:23;;;;;;;41.25;19.15;;;;;;;-0.61;92.59863;95072.19;;;;
2020/12/02 05:19:24;;;;;;;41.25;19.15;;;;;;;-0.61;92.59863;95072.19;;;;
2020/12/02 05:20:25;;;;;;;41.35;19;;;;;;;-0.76;92.62891;95067.28;;;;
2020/12/02 05:21:25;;;;;;;41.35;19;;;;;;;-0.76;92.62891;95067.28;;;;
2020/12/02 05:22:31;;;;;;;41.35;19;;;;;;;-0.76;92.62891;95067.28;;;;
2020/12/02 05:23:34;;;;;;;41.35;19;;;;;;;-0.76;92.62891;95067.28;;;;
2020/12/02 05:24:35;;;;;;;41.35;19;;;;;;;-0.76;92.62891;95067.28;;;;
2020/12/02 05:25:43;;;;;;;41.35;19;;;;;;;-0.76;92.62891;95067.28;;;;
2020/12/02 05:26:44;;;;;;;41.35;19;;;;;;;-0.76;92.62891;95067.28;;;;
2020/12/02 05:27:47;;;;;;;41.35;19;;;;;;;-0.76;92.62891;95067.28;;;;
2020/12/02 05:28:52;;;;;;;41.35;19;;;;;;;-0.76;92.62891;95067.28;;;;
2020/12/02 05:29:53;;;;;;;41.35;19;;;;;;;-0.76;92.62891;95067.28;;;;
2020/12/02 05:31:02;;;;;;;52.4;21.9;;;;;;;-0.89;92.95215;95072.23;;;;
2020/12/02 05:32:08;;;;;;;52.4;21.9;;;;;;;-0.89;92.95215;95072.23;;;;
2020/12/02 05:33:14;;;;;;;52.4;21.9;;;;;;;-0.89;92.95215;95072.23;;;;
2020/12/02 05:34:20;;;;;;;52.4;21.9;;;;;;;-0.89;92.95215;95072.23;;;;
2020/12/02 05:35:20;;;;;;;52.4;21.9;;;;;;;-0.89;92.95215;95072.23;;;;
2020/12/02 05:36:23;;;;;;;52.4;21.9;;;;;;;-0.89;92.95215;95072.23;;;;
2020/12/02 05:37:31;;;;;;;52.4;21.9;;;;;;;-0.89;92.95215;95072.23;;;;
2020/12/02 05:38:37;;;;;;;52.4;21.9;;;;;;;-0.89;92.95215;95072.23;;;;
2020/12/02 05:39:43;;;;;;;52.4;21.9;;;;;;;-0.89;92.95215;95072.23;;;;
2020/12/02 05:40:50;;;;;;;52.4;21.9;;;;;;;-0.89;92.95215;95072.23;;;;
2020/12/02 05:41:52;;;;;;;54.1;21.9;;;;;;;-1.01;92.95801;95071.86;;;;
2020/12/02 05:42:55;;;;;;;54.1;21.9;;;;;;;-1.01;92.95801;95071.86;;;;
2020/12/02 05:43:59;;;;;;;54.1;21.9;;;;;;;-1.01;92.95801;95071.86;;;;
2020/12/02 05:45:05;;;;;;;54.1;21.9;;;;;;;-1.01;92.95801;95071.86;;;;
2020/12/02 05:46:12;;;;;;;54.1;21.9;;;;;;;-1.01;92.95801;95071.86;;;;
2020/12/02 05:47:32;;;;;;;54.1;21.9;;;;;;;-1.01;92.95801;95071.86;;;;
2020/12/02 05:48:33;;;;;;;54.1;21.9;;;;;;;-1.01;92.95801;95071.86;;;;
2020/12/02 05:49:37;;;;;;;54.1;21.9;;;;;;;-1.01;92.95801;95071.86;;;;
2020/12/02 05:50:47;;;;;;;54.1;21.9;;;;;;;-1.01;92.95801;95071.86;;;;